sensor_id;sensor_type;location;lat;lon;timestamp;P1;durP1;ratioP1;P2;durP2;ratioP2
39918;SDS011;25589;51.552;13.424;2023-05-29T00:01:12;4.45;;;3.13;;
39918;SDS011;25589;51.552;13.424;2023-05-29T00:03:38;12.27;;;3.53;;
39918;SDS011;25589;51.552;13.424;2023-05-29T00:06:04;6.97;;;3.65;;
39918;SDS011;25589;51.552;13.424;2023-05-29T00:08:31;6.28;;;3.75;;
39918;SDS011;25589;51.552;13.424;2023-05-29T00:10:57;6.03;;;3.70;;
39918;SDS011;25589;51.552;13.424;2023-05-29T00:13:23;5.60;;;3.72;;
39918;SDS011;25589;51.552;13.424;2023-05-29T00:15:48;5.07;;;3.42;;
39918;SDS011;25589;51.552;13.424;2023-05-29T00:18:14;5.65;;;3.50;;
39918;SDS011;25589;51.552;13.424;2023-05-29T00:20:39;5.38;;;3.95;;
39918;SDS011;25589;51.552;13.424;2023-05-29T00:23:05;6.72;;;3.67;;
39918;SDS011;25589;51.552;13.424;2023-05-29T00:25:31;5.43;;;4.25;;
39918;SDS011;25589;51.552;13.424;2023-05-29T00:27:57;7.38;;;4.10;;
39918;SDS011;25589;51.552;13.424;2023-05-29T00:30:23;5.88;;;3.65;;
39918;SDS011;25589;51.552;13.424;2023-05-29T00:32:49;8.30;;;4.40;;
39918;SDS011;25589;51.552;13.424;2023-05-29T00:35:18;6.85;;;4.18;;
39918;SDS011;25589;51.552;13.424;2023-05-29T00:37:43;6.50;;;3.80;;
39918;SDS011;25589;51.552;13.424;2023-05-29T00:40:09;7.00;;;3.83;;
39918;SDS011;25589;51.552;13.424;2023-05-29T00:42:40;5.95;;;3.42;;
39918;SDS011;25589;51.552;13.424;2023-05-29T00:45:06;6.70;;;3.72;;
39918;SDS011;25589;51.552;13.424;2023-05-29T00:47:32;4.13;;;2.88;;
39918;SDS011;25589;51.552;13.424;2023-05-29T00:49:57;5.32;;;3.88;;
39918;SDS011;25589;51.552;13.424;2023-05-29T00:52:24;5.18;;;3.50;;
39918;SDS011;25589;51.552;13.424;2023-05-29T00:54:51;5.95;;;4.00;;
39918;SDS011;25589;51.552;13.424;2023-05-29T00:57:17;4.63;;;3.03;;
39918;SDS011;25589;51.552;13.424;2023-05-29T00:59:43;3.92;;;2.95;;
39918;SDS011;25589;51.552;13.424;2023-05-29T01:02:12;5.88;;;3.70;;
39918;SDS011;25589;51.552;13.424;2023-05-29T01:04:41;5.28;;;3.40;;
39918;SDS011;25589;51.552;13.424;2023-05-29T01:07:09;5.00;;;3.25;;
39918;SDS011;25589;51.552;13.424;2023-05-29T01:09:35;4.40;;;3.28;;
39918;SDS011;25589;51.552;13.424;2023-05-29T01:12:13;5.43;;;3.50;;
39918;SDS011;25589;51.552;13.424;2023-05-29T01:14:54;4.50;;;3.53;;
39918;SDS011;25589;51.552;13.424;2023-05-29T01:17:42;4.43;;;3.15;;
39918;SDS011;25589;51.552;13.424;2023-05-29T01:20:44;5.68;;;3.60;;
39918;SDS011;25589;51.552;13.424;2023-05-29T01:23:22;6.00;;;3.83;;
39918;SDS011;25589;51.552;13.424;2023-05-29T01:26:31;7.68;;;3.65;;
39918;SDS011;25589;51.552;13.424;2023-05-29T01:29:07;7.28;;;4.80;;
39918;SDS011;25589;51.552;13.424;2023-05-29T01:31:36;7.78;;;4.05;;
39918;SDS011;25589;51.552;13.424;2023-05-29T01:34:03;5.38;;;4.32;;
39918;SDS011;25589;51.552;13.424;2023-05-29T01:36:29;7.13;;;4.20;;
39918;SDS011;25589;51.552;13.424;2023-05-29T01:38:56;6.22;;;4.30;;
39918;SDS011;25589;51.552;13.424;2023-05-29T01:41:22;8.48;;;4.22;;
39918;SDS011;25589;51.552;13.424;2023-05-29T01:43:49;6.47;;;4.25;;
39918;SDS011;25589;51.552;13.424;2023-05-29T01:46:16;5.15;;;3.92;;
39918;SDS011;25589;51.552;13.424;2023-05-29T01:48:44;6.20;;;4.03;;
39918;SDS011;25589;51.552;13.424;2023-05-29T01:51:10;5.05;;;4.13;;
39918;SDS011;25589;51.552;13.424;2023-05-29T01:53:37;6.97;;;4.53;;
39918;SDS011;25589;51.552;13.424;2023-05-29T01:56:04;4.65;;;4.03;;
39918;SDS011;25589;51.552;13.424;2023-05-29T01:58:31;4.65;;;4.25;;
39918;SDS011;25589;51.552;13.424;2023-05-29T02:00:59;4.45;;;3.78;;
39918;SDS011;25589;51.552;13.424;2023-05-29T02:03:25;6.85;;;3.70;;
39918;SDS011;25589;51.552;13.424;2023-05-29T02:05:54;5.65;;;4.07;;
39918;SDS011;25589;51.552;13.424;2023-05-29T02:08:20;6.78;;;4.00;;
39918;SDS011;25589;51.552;13.424;2023-05-29T02:10:46;5.25;;;3.95;;
39918;SDS011;25589;51.552;13.424;2023-05-29T02:13:12;5.55;;;4.10;;
39918;SDS011;25589;51.552;13.424;2023-05-29T02:15:38;5.72;;;3.90;;
39918;SDS011;25589;51.552;13.424;2023-05-29T02:18:03;6.72;;;3.97;;
39918;SDS011;25589;51.552;13.424;2023-05-29T02:20:29;4.47;;;3.80;;
39918;SDS011;25589;51.552;13.424;2023-05-29T02:22:54;4.35;;;3.55;;
39918;SDS011;25589;51.552;13.424;2023-05-29T02:25:20;6.72;;;4.22;;
39918;SDS011;25589;51.552;13.424;2023-05-29T02:27:45;5.68;;;3.67;;
39918;SDS011;25589;51.552;13.424;2023-05-29T02:30:12;6.38;;;4.00;;
39918;SDS011;25589;51.552;13.424;2023-05-29T02:32:40;8.90;;;4.05;;
39918;SDS011;25589;51.552;13.424;2023-05-29T02:35:05;7.70;;;4.07;;
39918;SDS011;25589;51.552;13.424;2023-05-29T02:37:32;7.22;;;3.97;;
39918;SDS011;25589;51.552;13.424;2023-05-29T02:39:57;4.97;;;3.55;;
39918;SDS011;25589;51.552;13.424;2023-05-29T02:42:23;6.55;;;3.63;;
39918;SDS011;25589;51.552;13.424;2023-05-29T02:44:48;6.82;;;4.13;;
39918;SDS011;25589;51.552;13.424;2023-05-29T02:47:16;5.85;;;4.00;;
39918;SDS011;25589;51.552;13.424;2023-05-29T02:49:42;10.35;;;4.72;;
39918;SDS011;25589;51.552;13.424;2023-05-29T02:52:08;9.00;;;3.92;;
39918;SDS011;25589;51.552;13.424;2023-05-29T02:54:33;7.60;;;4.90;;
39918;SDS011;25589;51.552;13.424;2023-05-29T02:56:59;8.10;;;4.25;;
39918;SDS011;25589;51.552;13.424;2023-05-29T02:59:24;9.05;;;3.83;;
39918;SDS011;25589;51.552;13.424;2023-05-29T03:01:50;4.15;;;3.30;;
39918;SDS011;25589;51.552;13.424;2023-05-29T03:04:16;4.82;;;3.50;;
39918;SDS011;25589;51.552;13.424;2023-05-29T03:06:42;9.18;;;4.20;;
39918;SDS011;25589;51.552;13.424;2023-05-29T03:09:08;6.72;;;3.92;;
39918;SDS011;25589;51.552;13.424;2023-05-29T03:11:33;8.48;;;4.13;;
39918;SDS011;25589;51.552;13.424;2023-05-29T03:14:00;7.63;;;3.63;;
39918;SDS011;25589;51.552;13.424;2023-05-29T03:16:26;7.50;;;4.00;;
39918;SDS011;25589;51.552;13.424;2023-05-29T03:18:54;6.95;;;3.78;;
39918;SDS011;25589;51.552;13.424;2023-05-29T03:21:20;8.60;;;3.97;;
39918;SDS011;25589;51.552;13.424;2023-05-29T03:23:46;6.28;;;3.97;;
39918;SDS011;25589;51.552;13.424;2023-05-29T03:26:13;5.93;;;3.85;;
39918;SDS011;25589;51.552;13.424;2023-05-29T03:28:39;5.05;;;3.60;;
39918;SDS011;25589;51.552;13.424;2023-05-29T03:31:07;7.35;;;3.50;;
39918;SDS011;25589;51.552;13.424;2023-05-29T03:33:34;6.45;;;3.97;;
39918;SDS011;25589;51.552;13.424;2023-05-29T03:36:19;6.95;;;4.50;;
39918;SDS011;25589;51.552;13.424;2023-05-29T03:38:46;5.75;;;4.13;;
39918;SDS011;25589;51.552;13.424;2023-05-29T03:41:11;6.18;;;3.95;;
39918;SDS011;25589;51.552;13.424;2023-05-29T03:43:37;6.13;;;4.32;;
39918;SDS011;25589;51.552;13.424;2023-05-29T03:46:03;7.88;;;4.32;;
39918;SDS011;25589;51.552;13.424;2023-05-29T03:48:30;5.70;;;3.83;;
39918;SDS011;25589;51.552;13.424;2023-05-29T03:50:56;6.20;;;4.10;;
39918;SDS011;25589;51.552;13.424;2023-05-29T03:53:28;5.70;;;4.10;;
39918;SDS011;25589;51.552;13.424;2023-05-29T03:55:55;8.38;;;4.10;;
39918;SDS011;25589;51.552;13.424;2023-05-29T03:58:21;7.32;;;4.13;;
39918;SDS011;25589;51.552;13.424;2023-05-29T04:00:47;8.20;;;4.28;;
39918;SDS011;25589;51.552;13.424;2023-05-29T04:03:14;7.00;;;4.10;;
39918;SDS011;25589;51.552;13.424;2023-05-29T04:05:40;5.00;;;3.88;;
39918;SDS011;25589;51.552;13.424;2023-05-29T04:08:07;8.68;;;3.97;;
39918;SDS011;25589;51.552;13.424;2023-05-29T04:10:34;7.85;;;3.85;;
39918;SDS011;25589;51.552;13.424;2023-05-29T04:13:00;4.88;;;3.25;;
39918;SDS011;25589;51.552;13.424;2023-05-29T04:15:26;8.23;;;4.03;;
39918;SDS011;25589;51.552;13.424;2023-05-29T04:17:52;5.72;;;3.70;;
39918;SDS011;25589;51.552;13.424;2023-05-29T04:20:18;7.07;;;4.00;;
39918;SDS011;25589;51.552;13.424;2023-05-29T04:22:44;5.88;;;3.45;;
39918;SDS011;25589;51.552;13.424;2023-05-29T04:25:10;6.63;;;4.05;;
39918;SDS011;25589;51.552;13.424;2023-05-29T04:27:36;6.18;;;4.40;;
39918;SDS011;25589;51.552;13.424;2023-05-29T04:30:04;6.50;;;4.50;;
39918;SDS011;25589;51.552;13.424;2023-05-29T04:32:34;11.05;;;4.10;;
39918;SDS011;25589;51.552;13.424;2023-05-29T04:35:00;8.15;;;3.97;;
39918;SDS011;25589;51.552;13.424;2023-05-29T04:37:31;6.95;;;4.25;;
39918;SDS011;25589;51.552;13.424;2023-05-29T04:40:03;6.72;;;3.90;;
39918;SDS011;25589;51.552;13.424;2023-05-29T04:42:37;8.13;;;4.10;;
39918;SDS011;25589;51.552;13.424;2023-05-29T04:45:04;5.38;;;3.50;;
39918;SDS011;25589;51.552;13.424;2023-05-29T04:47:34;7.03;;;3.67;;
39918;SDS011;25589;51.552;13.424;2023-05-29T04:50:01;7.78;;;3.78;;
39918;SDS011;25589;51.552;13.424;2023-05-29T04:52:27;6.22;;;3.70;;
39918;SDS011;25589;51.552;13.424;2023-05-29T04:54:56;5.75;;;3.83;;
39918;SDS011;25589;51.552;13.424;2023-05-29T04:57:22;6.57;;;3.85;;
39918;SDS011;25589;51.552;13.424;2023-05-29T04:59:48;9.50;;;4.28;;
39918;SDS011;25589;51.552;13.424;2023-05-29T05:02:14;6.57;;;3.55;;
39918;SDS011;25589;51.552;13.424;2023-05-29T05:04:40;8.18;;;4.07;;
39918;SDS011;25589;51.552;13.424;2023-05-29T05:07:08;5.97;;;3.40;;
39918;SDS011;25589;51.552;13.424;2023-05-29T05:09:34;7.18;;;3.80;;
39918;SDS011;25589;51.552;13.424;2023-05-29T05:12:01;8.52;;;3.95;;
39918;SDS011;25589;51.552;13.424;2023-05-29T05:14:27;14.48;;;4.50;;
39918;SDS011;25589;51.552;13.424;2023-05-29T05:16:53;7.88;;;3.72;;
39918;SDS011;25589;51.552;13.424;2023-05-29T05:19:19;9.57;;;4.03;;
39918;SDS011;25589;51.552;13.424;2023-05-29T05:21:44;7.65;;;3.78;;
39918;SDS011;25589;51.552;13.424;2023-05-29T05:24:11;8.27;;;3.75;;
39918;SDS011;25589;51.552;13.424;2023-05-29T05:26:39;7.65;;;3.90;;
39918;SDS011;25589;51.552;13.424;2023-05-29T05:29:05;7.72;;;3.42;;
39918;SDS011;25589;51.552;13.424;2023-05-29T05:31:32;7.07;;;3.83;;
39918;SDS011;25589;51.552;13.424;2023-05-29T05:33:58;8.90;;;3.92;;
39918;SDS011;25589;51.552;13.424;2023-05-29T05:36:23;7.10;;;3.40;;
39918;SDS011;25589;51.552;13.424;2023-05-29T05:38:55;7.80;;;3.92;;
39918;SDS011;25589;51.552;13.424;2023-05-29T05:41:21;7.63;;;3.63;;
39918;SDS011;25589;51.552;13.424;2023-05-29T05:43:47;7.35;;;3.50;;
39918;SDS011;25589;51.552;13.424;2023-05-29T05:46:30;6.05;;;3.88;;
39918;SDS011;25589;51.552;13.424;2023-05-29T05:48:55;5.22;;;3.72;;
39918;SDS011;25589;51.552;13.424;2023-05-29T05:51:25;6.22;;;3.67;;
39918;SDS011;25589;51.552;13.424;2023-05-29T05:53:51;10.63;;;3.80;;
39918;SDS011;25589;51.552;13.424;2023-05-29T05:56:18;7.63;;;3.67;;
39918;SDS011;25589;51.552;13.424;2023-05-29T05:58:43;10.05;;;3.63;;
39918;SDS011;25589;51.552;13.424;2023-05-29T06:01:09;7.22;;;3.75;;
39918;SDS011;25589;51.552;13.424;2023-05-29T06:03:35;9.80;;;4.00;;
39918;SDS011;25589;51.552;13.424;2023-05-29T06:06:05;8.25;;;3.95;;
39918;SDS011;25589;51.552;13.424;2023-05-29T06:08:33;6.68;;;3.10;;
39918;SDS011;25589;51.552;13.424;2023-05-29T06:10:58;7.75;;;3.83;;
39918;SDS011;25589;51.552;13.424;2023-05-29T06:13:24;6.40;;;3.97;;
39918;SDS011;25589;51.552;13.424;2023-05-29T06:15:56;7.70;;;3.97;;
39918;SDS011;25589;51.552;13.424;2023-05-29T06:18:21;8.32;;;4.03;;
39918;SDS011;25589;51.552;13.424;2023-05-29T06:20:47;11.05;;;3.78;;
39918;SDS011;25589;51.552;13.424;2023-05-29T06:23:13;8.55;;;4.05;;
39918;SDS011;25589;51.552;13.424;2023-05-29T06:25:38;10.10;;;4.00;;
39918;SDS011;25589;51.552;13.424;2023-05-29T06:28:05;12.75;;;4.55;;
39918;SDS011;25589;51.552;13.424;2023-05-29T06:30:33;6.75;;;3.65;;
39918;SDS011;25589;51.552;13.424;2023-05-29T06:32:59;9.68;;;4.60;;
39918;SDS011;25589;51.552;13.424;2023-05-29T06:35:29;6.43;;;3.75;;
39918;SDS011;25589;51.552;13.424;2023-05-29T06:37:55;8.95;;;3.75;;
39918;SDS011;25589;51.552;13.424;2023-05-29T06:40:21;8.27;;;3.75;;
39918;SDS011;25589;51.552;13.424;2023-05-29T06:42:46;9.95;;;3.80;;
39918;SDS011;25589;51.552;13.424;2023-05-29T06:45:14;6.93;;;3.28;;
39918;SDS011;25589;51.552;13.424;2023-05-29T06:47:43;7.65;;;3.78;;
39918;SDS011;25589;51.552;13.424;2023-05-29T06:50:10;5.30;;;3.50;;
39918;SDS011;25589;51.552;13.424;2023-05-29T06:52:36;7.43;;;4.07;;
39918;SDS011;25589;51.552;13.424;2023-05-29T06:55:25;8.38;;;3.58;;
39918;SDS011;25589;51.552;13.424;2023-05-29T06:57:54;10.18;;;3.63;;
39918;SDS011;25589;51.552;13.424;2023-05-29T07:00:19;5.32;;;3.42;;
39918;SDS011;25589;51.552;13.424;2023-05-29T07:02:55;9.63;;;3.63;;
39918;SDS011;25589;51.552;13.424;2023-05-29T07:05:20;7.05;;;3.45;;
39918;SDS011;25589;51.552;13.424;2023-05-29T07:07:46;8.88;;;3.72;;
39918;SDS011;25589;51.552;13.424;2023-05-29T07:10:12;6.50;;;3.50;;
39918;SDS011;25589;51.552;13.424;2023-05-29T07:12:37;12.98;;;5.40;;
39918;SDS011;25589;51.552;13.424;2023-05-29T07:15:03;6.88;;;3.10;;
39918;SDS011;25589;51.552;13.424;2023-05-29T07:17:30;9.07;;;3.50;;
39918;SDS011;25589;51.552;13.424;2023-05-29T07:20:07;6.03;;;3.15;;
39918;SDS011;25589;51.552;13.424;2023-05-29T07:22:34;9.65;;;4.10;;
39918;SDS011;25589;51.552;13.424;2023-05-29T07:25:00;8.00;;;3.58;;
39918;SDS011;25589;51.552;13.424;2023-05-29T07:27:27;9.23;;;3.40;;
39918;SDS011;25589;51.552;13.424;2023-05-29T07:29:53;5.63;;;3.40;;
39918;SDS011;25589;51.552;13.424;2023-05-29T07:32:18;6.03;;;3.35;;
39918;SDS011;25589;51.552;13.424;2023-05-29T07:34:44;6.85;;;3.50;;
39918;SDS011;25589;51.552;13.424;2023-05-29T07:37:10;7.03;;;3.28;;
39918;SDS011;25589;51.552;13.424;2023-05-29T07:39:37;8.30;;;3.20;;
39918;SDS011;25589;51.552;13.424;2023-05-29T07:42:14;7.25;;;3.25;;
39918;SDS011;25589;51.552;13.424;2023-05-29T07:44:41;6.13;;;3.00;;
39918;SDS011;25589;51.552;13.424;2023-05-29T07:47:08;6.07;;;3.08;;
39918;SDS011;25589;51.552;13.424;2023-05-29T07:49:39;4.97;;;2.58;;
39918;SDS011;25589;51.552;13.424;2023-05-29T07:52:06;6.35;;;3.10;;
39918;SDS011;25589;51.552;13.424;2023-05-29T07:54:32;6.38;;;2.85;;
39918;SDS011;25589;51.552;13.424;2023-05-29T07:56:59;7.85;;;2.92;;
39918;SDS011;25589;51.552;13.424;2023-05-29T07:59:25;7.05;;;3.30;;
39918;SDS011;25589;51.552;13.424;2023-05-29T08:01:51;8.88;;;3.40;;
39918;SDS011;25589;51.552;13.424;2023-05-29T08:04:37;7.57;;;3.20;;
39918;SDS011;25589;51.552;13.424;2023-05-29T08:07:03;8.27;;;2.88;;
39918;SDS011;25589;51.552;13.424;2023-05-29T08:09:31;5.43;;;2.90;;
39918;SDS011;25589;51.552;13.424;2023-05-29T08:11:57;4.55;;;2.75;;
39918;SDS011;25589;51.552;13.424;2023-05-29T08:14:24;6.75;;;2.95;;
39918;SDS011;25589;51.552;13.424;2023-05-29T08:16:51;5.70;;;2.83;;
39918;SDS011;25589;51.552;13.424;2023-05-29T08:19:17;8.00;;;2.80;;
39918;SDS011;25589;51.552;13.424;2023-05-29T08:21:42;6.95;;;2.95;;
39918;SDS011;25589;51.552;13.424;2023-05-29T08:24:08;5.32;;;2.60;;
39918;SDS011;25589;51.552;13.424;2023-05-29T08:26:34;9.57;;;2.88;;
39918;SDS011;25589;51.552;13.424;2023-05-29T08:29:00;8.95;;;3.00;;
39918;SDS011;25589;51.552;13.424;2023-05-29T08:31:26;7.18;;;2.88;;
39918;SDS011;25589;51.552;13.424;2023-05-29T08:33:52;4.03;;;2.80;;
39918;SDS011;25589;51.552;13.424;2023-05-29T08:36:19;7.72;;;3.10;;
39918;SDS011;25589;51.552;13.424;2023-05-29T08:38:47;3.92;;;2.65;;
39918;SDS011;25589;51.552;13.424;2023-05-29T08:41:17;6.78;;;3.42;;
39918;SDS011;25589;51.552;13.424;2023-05-29T08:43:52;5.97;;;2.85;;
39918;SDS011;25589;51.552;13.424;2023-05-29T08:46:18;6.45;;;3.13;;
39918;SDS011;25589;51.552;13.424;2023-05-29T08:48:47;5.53;;;2.85;;
39918;SDS011;25589;51.552;13.424;2023-05-29T08:51:15;3.47;;;2.30;;
39918;SDS011;25589;51.552;13.424;2023-05-29T08:53:44;5.95;;;3.20;;
39918;SDS011;25589;51.552;13.424;2023-05-29T08:56:11;8.40;;;3.25;;
39918;SDS011;25589;51.552;13.424;2023-05-29T08:58:36;4.78;;;3.17;;
39918;SDS011;25589;51.552;13.424;2023-05-29T09:01:03;8.32;;;3.10;;
39918;SDS011;25589;51.552;13.424;2023-05-29T09:03:29;31.15;;;3.90;;
39918;SDS011;25589;51.552;13.424;2023-05-29T09:05:58;5.40;;;2.60;;
39918;SDS011;25589;51.552;13.424;2023-05-29T09:08:25;8.25;;;2.95;;
39918;SDS011;25589;51.552;13.424;2023-05-29T09:10:52;11.38;;;3.13;;
39918;SDS011;25589;51.552;13.424;2023-05-29T09:13:17;5.25;;;2.92;;
39918;SDS011;25589;51.552;13.424;2023-05-29T09:15:43;5.35;;;3.03;;
39918;SDS011;25589;51.552;13.424;2023-05-29T09:18:09;8.93;;;2.95;;
39918;SDS011;25589;51.552;13.424;2023-05-29T09:20:35;6.80;;;2.97;;
39918;SDS011;25589;51.552;13.424;2023-05-29T09:23:04;7.28;;;3.28;;
39918;SDS011;25589;51.552;13.424;2023-05-29T09:25:32;7.28;;;3.25;;
39918;SDS011;25589;51.552;13.424;2023-05-29T09:27:59;7.15;;;2.60;;
39918;SDS011;25589;51.552;13.424;2023-05-29T09:32:58;9.30;;;3.10;;
39918;SDS011;25589;51.552;13.424;2023-05-29T09:35:25;7.30;;;2.88;;
39918;SDS011;25589;51.552;13.424;2023-05-29T09:37:56;12.10;;;3.08;;
39918;SDS011;25589;51.552;13.424;2023-05-29T09:40:22;6.40;;;2.90;;
39918;SDS011;25589;51.552;13.424;2023-05-29T09:42:48;7.07;;;3.45;;
39918;SDS011;25589;51.552;13.424;2023-05-29T09:45:16;7.28;;;3.35;;
39918;SDS011;25589;51.552;13.424;2023-05-29T09:47:43;6.00;;;2.63;;
39918;SDS011;25589;51.552;13.424;2023-05-29T09:50:18;5.93;;;3.33;;
39918;SDS011;25589;51.552;13.424;2023-05-29T09:52:47;6.13;;;2.75;;
39918;SDS011;25589;51.552;13.424;2023-05-29T09:55:13;4.50;;;2.78;;
39918;SDS011;25589;51.552;13.424;2023-05-29T09:57:44;5.55;;;2.63;;
39918;SDS011;25589;51.552;13.424;2023-05-29T10:00:12;5.38;;;2.53;;
39918;SDS011;25589;51.552;13.424;2023-05-29T10:02:38;9.85;;;3.33;;
39918;SDS011;25589;51.552;13.424;2023-05-29T10:05:05;6.90;;;2.53;;
39918;SDS011;25589;51.552;13.424;2023-05-29T10:07:33;11.02;;;3.00;;
39918;SDS011;25589;51.552;13.424;2023-05-29T10:10:02;5.00;;;2.63;;
39918;SDS011;25589;51.552;13.424;2023-05-29T10:12:31;8.70;;;3.05;;
39918;SDS011;25589;51.552;13.424;2023-05-29T10:14:59;5.55;;;3.03;;
39918;SDS011;25589;51.552;13.424;2023-05-29T10:17:29;10.48;;;3.30;;
39918;SDS011;25589;51.552;13.424;2023-05-29T10:19:58;12.93;;;3.05;;
39918;SDS011;25589;51.552;13.424;2023-05-29T10:22:26;5.13;;;3.10;;
39918;SDS011;25589;51.552;13.424;2023-05-29T10:24:53;6.22;;;2.90;;
39918;SDS011;25589;51.552;13.424;2023-05-29T10:27:21;4.70;;;2.58;;
39918;SDS011;25589;51.552;13.424;2023-05-29T10:32:23;6.25;;;3.10;;
39918;SDS011;25589;51.552;13.424;2023-05-29T10:35:14;4.43;;;2.78;;
39918;SDS011;25589;51.552;13.424;2023-05-29T10:37:53;4.97;;;2.70;;
39918;SDS011;25589;51.552;13.424;2023-05-29T10:40:23;5.28;;;2.70;;
39918;SDS011;25589;51.552;13.424;2023-05-29T10:42:50;5.40;;;3.10;;
39918;SDS011;25589;51.552;13.424;2023-05-29T10:53:09;4.30;;;2.70;;
39918;SDS011;25589;51.552;13.424;2023-05-29T10:55:38;6.97;;;2.90;;
39918;SDS011;25589;51.552;13.424;2023-05-29T10:58:08;3.78;;;2.60;;
39918;SDS011;25589;51.552;13.424;2023-05-29T11:00:40;4.53;;;3.03;;
39918;SDS011;25589;51.552;13.424;2023-05-29T11:03:11;4.15;;;2.70;;
39918;SDS011;25589;51.552;13.424;2023-05-29T11:05:58;4.70;;;2.50;;
39918;SDS011;25589;51.552;13.424;2023-05-29T11:08:52;4.78;;;2.55;;
39918;SDS011;25589;51.552;13.424;2023-05-29T11:11:29;3.78;;;2.25;;
39918;SDS011;25589;51.552;13.424;2023-05-29T11:14:03;4.80;;;2.83;;
39918;SDS011;25589;51.552;13.424;2023-05-29T11:18:56;5.35;;;2.60;;
39918;SDS011;25589;51.552;13.424;2023-05-29T11:21:29;4.35;;;2.42;;
39918;SDS011;25589;51.552;13.424;2023-05-29T11:23:58;4.63;;;3.00;;
39918;SDS011;25589;51.552;13.424;2023-05-29T11:26:28;5.10;;;3.00;;
39918;SDS011;25589;51.552;13.424;2023-05-29T11:29:02;3.80;;;2.53;;
39918;SDS011;25589;51.552;13.424;2023-05-29T11:31:31;7.05;;;2.60;;
39918;SDS011;25589;51.552;13.424;2023-05-29T11:34:01;5.68;;;2.67;;
39918;SDS011;25589;51.552;13.424;2023-05-29T11:36:30;4.47;;;2.72;;
39918;SDS011;25589;51.552;13.424;2023-05-29T11:38:56;7.15;;;3.13;;
39918;SDS011;25589;51.552;13.424;2023-05-29T11:41:22;3.72;;;2.38;;
39918;SDS011;25589;51.552;13.424;2023-05-29T11:43:55;5.05;;;3.13;;
39918;SDS011;25589;51.552;13.424;2023-05-29T11:46:24;3.90;;;2.55;;
39918;SDS011;25589;51.552;13.424;2023-05-29T11:48:51;4.32;;;3.00;;
39918;SDS011;25589;51.552;13.424;2023-05-29T11:51:17;4.47;;;2.63;;
39918;SDS011;25589;51.552;13.424;2023-05-29T11:53:43;6.57;;;2.88;;
39918;SDS011;25589;51.552;13.424;2023-05-29T11:56:11;8.73;;;3.47;;
39918;SDS011;25589;51.552;13.424;2023-05-29T11:58:40;5.47;;;3.03;;
39918;SDS011;25589;51.552;13.424;2023-05-29T12:01:07;4.57;;;3.00;;
39918;SDS011;25589;51.552;13.424;2023-05-29T12:03:40;3.65;;;2.80;;
39918;SDS011;25589;51.552;13.424;2023-05-29T12:06:06;5.38;;;2.83;;
39918;SDS011;25589;51.552;13.424;2023-05-29T12:08:33;4.55;;;2.95;;
39918;SDS011;25589;51.552;13.424;2023-05-29T12:10:59;6.53;;;3.28;;
39918;SDS011;25589;51.552;13.424;2023-05-29T12:13:24;2.97;;;2.42;;
39918;SDS011;25589;51.552;13.424;2023-05-29T12:15:52;5.13;;;3.00;;
39918;SDS011;25589;51.552;13.424;2023-05-29T12:18:19;4.40;;;3.30;;
39918;SDS011;25589;51.552;13.424;2023-05-29T12:20:45;6.28;;;2.85;;
39918;SDS011;25589;51.552;13.424;2023-05-29T12:23:11;4.35;;;2.97;;
39918;SDS011;25589;51.552;13.424;2023-05-29T12:25:40;6.13;;;2.70;;
39918;SDS011;25589;51.552;13.424;2023-05-29T12:28:05;5.68;;;2.60;;
39918;SDS011;25589;51.552;13.424;2023-05-29T12:30:31;4.75;;;2.80;;
39918;SDS011;25589;51.552;13.424;2023-05-29T12:33:02;7.18;;;3.20;;
39918;SDS011;25589;51.552;13.424;2023-05-29T12:35:28;4.28;;;3.05;;
39918;SDS011;25589;51.552;13.424;2023-05-29T12:40:26;3.47;;;2.60;;
39918;SDS011;25589;51.552;13.424;2023-05-29T12:45:25;7.45;;;3.03;;
39918;SDS011;25589;51.552;13.424;2023-05-29T12:47:59;3.95;;;3.15;;
39918;SDS011;25589;51.552;13.424;2023-05-29T12:53:04;4.35;;;2.60;;
39918;SDS011;25589;51.552;13.424;2023-05-29T12:55:31;3.15;;;2.83;;
39918;SDS011;25589;51.552;13.424;2023-05-29T12:58:02;4.85;;;3.30;;
39918;SDS011;25589;51.552;13.424;2023-05-29T13:00:28;4.15;;;2.47;;
39918;SDS011;25589;51.552;13.424;2023-05-29T13:02:55;5.72;;;3.00;;
39918;SDS011;25589;51.552;13.424;2023-05-29T13:05:21;4.38;;;2.63;;
39918;SDS011;25589;51.552;13.424;2023-05-29T13:07:48;4.72;;;3.17;;
39918;SDS011;25589;51.552;13.424;2023-05-29T13:10:15;5.50;;;2.55;;
39918;SDS011;25589;51.552;13.424;2023-05-29T13:12:41;6.65;;;2.92;;
39918;SDS011;25589;51.552;13.424;2023-05-29T13:15:10;4.07;;;2.85;;
39918;SDS011;25589;51.552;13.424;2023-05-29T13:17:37;4.85;;;2.85;;
39918;SDS011;25589;51.552;13.424;2023-05-29T13:20:05;4.85;;;2.72;;
39918;SDS011;25589;51.552;13.424;2023-05-29T13:22:33;3.60;;;2.67;;
39918;SDS011;25589;51.552;13.424;2023-05-29T13:24:58;3.67;;;2.33;;
39918;SDS011;25589;51.552;13.424;2023-05-29T13:27:24;3.65;;;2.55;;
39918;SDS011;25589;51.552;13.424;2023-05-29T13:29:51;5.35;;;3.20;;
39918;SDS011;25589;51.552;13.424;2023-05-29T13:32:17;4.43;;;2.90;;
39918;SDS011;25589;51.552;13.424;2023-05-29T13:34:42;5.25;;;2.92;;
39918;SDS011;25589;51.552;13.424;2023-05-29T13:37:08;5.13;;;2.88;;
39918;SDS011;25589;51.552;13.424;2023-05-29T13:39:34;3.75;;;2.63;;
39918;SDS011;25589;51.552;13.424;2023-05-29T13:41:59;4.45;;;2.75;;
39918;SDS011;25589;51.552;13.424;2023-05-29T13:44:25;4.38;;;2.63;;
39918;SDS011;25589;51.552;13.424;2023-05-29T13:46:51;4.30;;;2.88;;
39918;SDS011;25589;51.552;13.424;2023-05-29T13:49:16;6.65;;;3.00;;
39918;SDS011;25589;51.552;13.424;2023-05-29T13:51:42;6.45;;;2.60;;
39918;SDS011;25589;51.552;13.424;2023-05-29T13:54:10;3.85;;;2.85;;
39918;SDS011;25589;51.552;13.424;2023-05-29T13:56:35;5.32;;;2.42;;
39918;SDS011;25589;51.552;13.424;2023-05-29T13:59:01;4.47;;;2.70;;
39918;SDS011;25589;51.552;13.424;2023-05-29T14:01:30;3.17;;;2.83;;
39918;SDS011;25589;51.552;13.424;2023-05-29T14:03:55;3.90;;;2.65;;
39918;SDS011;25589;51.552;13.424;2023-05-29T14:06:21;4.10;;;2.40;;
39918;SDS011;25589;51.552;13.424;2023-05-29T14:08:47;5.85;;;2.88;;
39918;SDS011;25589;51.552;13.424;2023-05-29T14:11:12;4.97;;;2.50;;
39918;SDS011;25589;51.552;13.424;2023-05-29T14:13:38;5.72;;;2.92;;
39918;SDS011;25589;51.552;13.424;2023-05-29T14:16:03;2.92;;;2.53;;
39918;SDS011;25589;51.552;13.424;2023-05-29T14:18:29;3.88;;;2.70;;
39918;SDS011;25589;51.552;13.424;2023-05-29T14:20:54;6.38;;;2.97;;
39918;SDS011;25589;51.552;13.424;2023-05-29T14:23:20;8.35;;;3.13;;
39918;SDS011;25589;51.552;13.424;2023-05-29T14:25:45;3.58;;;2.75;;
39918;SDS011;25589;51.552;13.424;2023-05-29T14:28:11;4.72;;;2.53;;
39918;SDS011;25589;51.552;13.424;2023-05-29T14:30:37;4.78;;;2.60;;
39918;SDS011;25589;51.552;13.424;2023-05-29T14:33:02;4.45;;;2.88;;
39918;SDS011;25589;51.552;13.424;2023-05-29T14:35:28;3.50;;;2.38;;
39918;SDS011;25589;51.552;13.424;2023-05-29T14:37:54;4.15;;;2.45;;
39918;SDS011;25589;51.552;13.424;2023-05-29T14:40:20;4.25;;;2.75;;
39918;SDS011;25589;51.552;13.424;2023-05-29T14:42:45;5.30;;;2.90;;
39918;SDS011;25589;51.552;13.424;2023-05-29T14:45:11;4.47;;;2.90;;
39918;SDS011;25589;51.552;13.424;2023-05-29T14:47:36;3.40;;;2.50;;
39918;SDS011;25589;51.552;13.424;2023-05-29T14:50:02;6.07;;;3.10;;
39918;SDS011;25589;51.552;13.424;2023-05-29T14:52:28;4.22;;;2.60;;
39918;SDS011;25589;51.552;13.424;2023-05-29T14:54:53;7.68;;;3.05;;
39918;SDS011;25589;51.552;13.424;2023-05-29T14:57:19;5.07;;;3.22;;
39918;SDS011;25589;51.552;13.424;2023-05-29T14:59:45;7.05;;;3.15;;